sensor_id;sensor_type;location;lat;lon;timestamp;P1;durP1;ratioP1;P2;durP2;ratioP2
7116;SDS011;3600;48.568;7.870;2023-02-01T00:00:15;4.27;;;3.87;;
7116;SDS011;3600;48.568;7.870;2023-02-01T00:02:42;5.23;;;4.73;;
7116;SDS011;3600;48.568;7.870;2023-02-01T00:05:09;5.07;;;4.30;;
7116;SDS011;3600;48.568;7.870;2023-02-01T00:07:36;4.93;;;4.00;;
7116;SDS011;3600;48.568;7.870;2023-02-01T00:10:04;4.70;;;4.20;;
7116;SDS011;3600;48.568;7.870;2023-02-01T00:12:32;5.27;;;4.77;;
7116;SDS011;3600;48.568;7.870;2023-02-01T00:14:59;7.23;;;4.40;;
7116;SDS011;3600;48.568;7.870;2023-02-01T00:17:26;5.23;;;4.73;;
7116;SDS011;3600;48.568;7.870;2023-02-01T00:19:53;5.07;;;4.57;;
7116;SDS011;3600;48.568;7.870;2023-02-01T00:22:20;5.03;;;4.53;;
7116;SDS011;3600;48.568;7.870;2023-02-01T00:24:46;4.70;;;4.30;;
7116;SDS011;3600;48.568;7.870;2023-02-01T00:27:13;5.90;;;4.20;;
7116;SDS011;3600;48.568;7.870;2023-02-01T00:29:43;4.50;;;4.10;;
7116;SDS011;3600;48.568;7.870;2023-02-01T00:32:11;4.77;;;4.27;;
7116;SDS011;3600;48.568;7.870;2023-02-01T00:34:38;7.57;;;4.87;;
7116;SDS011;3600;48.568;7.870;2023-02-01T00:37:05;5.97;;;4.73;;
7116;SDS011;3600;48.568;7.870;2023-02-01T00:39:32;5.27;;;4.70;;
7116;SDS011;3600;48.568;7.870;2023-02-01T00:41:59;4.40;;;4.00;;
7116;SDS011;3600;48.568;7.870;2023-02-01T00:44:27;7.13;;;4.83;;
7116;SDS011;3600;48.568;7.870;2023-02-01T00:46:53;5.70;;;4.33;;
7116;SDS011;3600;48.568;7.870;2023-02-01T00:49:20;5.30;;;3.90;;
7116;SDS011;3600;48.568;7.870;2023-02-01T00:51:47;6.10;;;4.37;;
7116;SDS011;3600;48.568;7.870;2023-02-01T00:54:14;4.77;;;4.33;;
7116;SDS011;3600;48.568;7.870;2023-02-01T00:56:41;5.27;;;3.87;;
7116;SDS011;3600;48.568;7.870;2023-02-01T00:59:10;4.67;;;4.27;;
7116;SDS011;3600;48.568;7.870;2023-02-01T01:01:38;4.90;;;4.40;;
7116;SDS011;3600;48.568;7.870;2023-02-01T01:04:05;6.40;;;4.63;;
7116;SDS011;3600;48.568;7.870;2023-02-01T01:06:32;6.23;;;4.73;;
7116;SDS011;3600;48.568;7.870;2023-02-01T01:09:01;5.83;;;4.97;;
7116;SDS011;3600;48.568;7.870;2023-02-01T01:11:30;6.03;;;5.23;;
7116;SDS011;3600;48.568;7.870;2023-02-01T01:13:59;5.67;;;5.00;;
7116;SDS011;3600;48.568;7.870;2023-02-01T01:16:27;8.37;;;5.43;;
7116;SDS011;3600;48.568;7.870;2023-02-01T01:18:56;6.77;;;6.07;;
7116;SDS011;3600;48.568;7.870;2023-02-01T01:21:23;6.33;;;5.70;;
7116;SDS011;3600;48.568;7.870;2023-02-01T01:23:51;7.40;;;5.27;;
7116;SDS011;3600;48.568;7.870;2023-02-01T01:26:19;6.57;;;5.63;;
7116;SDS011;3600;48.568;7.870;2023-02-01T01:28:51;7.33;;;6.00;;
7116;SDS011;3600;48.568;7.870;2023-02-01T01:31:18;6.63;;;5.90;;
7116;SDS011;3600;48.568;7.870;2023-02-01T01:33:49;6.63;;;6.03;;
7116;SDS011;3600;48.568;7.870;2023-02-01T01:36:17;6.37;;;5.77;;
7116;SDS011;3600;48.568;7.870;2023-02-01T01:38:44;6.80;;;6.20;;
7116;SDS011;3600;48.568;7.870;2023-02-01T01:41:16;6.27;;;5.30;;
7116;SDS011;3600;48.568;7.870;2023-02-01T01:43:47;6.63;;;5.57;;
7116;SDS011;3600;48.568;7.870;2023-02-01T01:46:21;7.63;;;5.57;;
7116;SDS011;3600;48.568;7.870;2023-02-01T01:48:56;7.23;;;5.57;;
7116;SDS011;3600;48.568;7.870;2023-02-01T01:51:27;7.83;;;5.83;;
7116;SDS011;3600;48.568;7.870;2023-02-01T01:54:11;8.33;;;6.17;;
7116;SDS011;3600;48.568;7.870;2023-02-01T01:56:45;6.83;;;6.00;;
7116;SDS011;3600;48.568;7.870;2023-02-01T01:59:16;7.07;;;6.37;;
7116;SDS011;3600;48.568;7.870;2023-02-01T02:01:43;6.77;;;6.17;;
7116;SDS011;3600;48.568;7.870;2023-02-01T02:04:11;8.33;;;6.53;;
7116;SDS011;3600;48.568;7.870;2023-02-01T02:09:16;6.47;;;5.77;;
7116;SDS011;3600;48.568;7.870;2023-02-01T02:11:42;8.83;;;6.43;;
7116;SDS011;3600;48.568;7.870;2023-02-01T02:14:10;7.50;;;5.77;;
7116;SDS011;3600;48.568;7.870;2023-02-01T02:16:43;8.97;;;6.20;;
7116;SDS011;3600;48.568;7.870;2023-02-01T02:25:28;6.60;;;5.90;;
7116;SDS011;3600;48.568;7.870;2023-02-01T02:28:21;7.27;;;6.07;;
7116;SDS011;3600;48.568;7.870;2023-02-01T02:36:17;6.20;;;5.20;;
7116;SDS011;3600;48.568;7.870;2023-02-01T02:38:58;5.40;;;4.90;;
7116;SDS011;3600;48.568;7.870;2023-02-01T02:50:40;5.10;;;4.60;;
7116;SDS011;3600;48.568;7.870;2023-02-01T02:53:32;5.43;;;4.93;;
7116;SDS011;3600;48.568;7.870;2023-02-01T02:56:21;5.87;;;4.90;;
7116;SDS011;3600;48.568;7.870;2023-02-01T02:59:09;5.23;;;4.73;;
7116;SDS011;3600;48.568;7.870;2023-02-01T03:01:58;5.13;;;4.43;;
7116;SDS011;3600;48.568;7.870;2023-02-01T03:04:43;7.60;;;5.10;;
7116;SDS011;3600;48.568;7.870;2023-02-01T03:07:15;4.63;;;4.23;;
7116;SDS011;3600;48.568;7.870;2023-02-01T03:10:34;4.50;;;4.10;;
7116;SDS011;3600;48.568;7.870;2023-02-01T03:13:08;5.50;;;4.63;;
7116;SDS011;3600;48.568;7.870;2023-02-01T03:15:45;5.40;;;4.60;;
7116;SDS011;3600;48.568;7.870;2023-02-01T03:18:28;5.10;;;4.40;;
7116;SDS011;3600;48.568;7.870;2023-02-01T03:20:57;5.23;;;4.73;;
7116;SDS011;3600;48.568;7.870;2023-02-01T03:23:28;5.57;;;4.70;;
7116;SDS011;3600;48.568;7.870;2023-02-01T03:26:00;5.93;;;4.60;;
7116;SDS011;3600;48.568;7.870;2023-02-01T03:28:29;8.77;;;4.63;;
7116;SDS011;3600;48.568;7.870;2023-02-01T03:31:00;4.57;;;4.17;;
7116;SDS011;3600;48.568;7.870;2023-02-01T03:33:27;4.63;;;4.10;;
7116;SDS011;3600;48.568;7.870;2023-02-01T03:38:55;5.03;;;4.13;;
7116;SDS011;3600;48.568;7.870;2023-02-01T03:41:34;5.07;;;4.10;;
7116;SDS011;3600;48.568;7.870;2023-02-01T03:46:39;5.13;;;4.57;;
7116;SDS011;3600;48.568;7.870;2023-02-01T03:49:18;4.37;;;3.97;;
7116;SDS011;3600;48.568;7.870;2023-02-01T03:51:51;5.13;;;4.37;;
7116;SDS011;3600;48.568;7.870;2023-02-01T03:54:19;4.50;;;4.07;;
7116;SDS011;3600;48.568;7.870;2023-02-01T03:56:46;5.47;;;4.33;;
7116;SDS011;3600;48.568;7.870;2023-02-01T03:59:14;6.43;;;4.47;;
7116;SDS011;3600;48.568;7.870;2023-02-01T04:01:41;5.77;;;4.13;;
7116;SDS011;3600;48.568;7.870;2023-02-01T04:04:08;4.53;;;4.00;;
7116;SDS011;3600;48.568;7.870;2023-02-01T04:06:35;6.07;;;3.93;;
7116;SDS011;3600;48.568;7.870;2023-02-01T04:09:02;3.60;;;3.30;;
7116;SDS011;3600;48.568;7.870;2023-02-01T04:11:29;4.37;;;3.60;;
7116;SDS011;3600;48.568;7.870;2023-02-01T04:13:55;4.33;;;3.93;;
7116;SDS011;3600;48.568;7.870;2023-02-01T04:16:22;4.13;;;3.73;;
7116;SDS011;3600;48.568;7.870;2023-02-01T04:18:49;4.77;;;3.97;;
7116;SDS011;3600;48.568;7.870;2023-02-01T04:21:15;4.67;;;4.00;;
7116;SDS011;3600;48.568;7.870;2023-02-01T04:23:42;4.90;;;3.93;;
7116;SDS011;3600;48.568;7.870;2023-02-01T04:26:09;4.93;;;4.00;;
7116;SDS011;3600;48.568;7.870;2023-02-01T04:28:36;4.87;;;4.07;;
7116;SDS011;3600;48.568;7.870;2023-02-01T04:31:02;4.80;;;4.33;;
7116;SDS011;3600;48.568;7.870;2023-02-01T04:33:29;4.87;;;4.30;;
7116;SDS011;3600;48.568;7.870;2023-02-01T04:35:56;5.80;;;4.33;;
7116;SDS011;3600;48.568;7.870;2023-02-01T04:38:23;5.17;;;4.70;;
7116;SDS011;3600;48.568;7.870;2023-02-01T04:40:50;6.23;;;4.77;;
7116;SDS011;3600;48.568;7.870;2023-02-01T04:43:17;5.97;;;4.83;;
7116;SDS011;3600;48.568;7.870;2023-02-01T04:45:48;4.90;;;4.40;;
7116;SDS011;3600;48.568;7.870;2023-02-01T04:48:15;5.40;;;4.73;;
7116;SDS011;3600;48.568;7.870;2023-02-01T04:50:44;5.57;;;4.20;;
7116;SDS011;3600;48.568;7.870;2023-02-01T04:53:17;4.90;;;4.40;;
7116;SDS011;3600;48.568;7.870;2023-02-01T04:55:44;5.47;;;4.43;;
7116;SDS011;3600;48.568;7.870;2023-02-01T04:58:11;6.93;;;4.47;;
7116;SDS011;3600;48.568;7.870;2023-02-01T05:00:37;5.20;;;4.67;;
7116;SDS011;3600;48.568;7.870;2023-02-01T05:03:04;5.40;;;4.90;;
7116;SDS011;3600;48.568;7.870;2023-02-01T05:05:31;5.10;;;4.57;;
7116;SDS011;3600;48.568;7.870;2023-02-01T05:07:58;5.00;;;4.40;;
7116;SDS011;3600;48.568;7.870;2023-02-01T05:10:25;6.87;;;4.83;;
7116;SDS011;3600;48.568;7.870;2023-02-01T05:12:51;5.13;;;4.40;;
7116;SDS011;3600;48.568;7.870;2023-02-01T05:15:37;4.73;;;4.23;;
7116;SDS011;3600;48.568;7.870;2023-02-01T05:18:03;6.77;;;4.23;;
7116;SDS011;3600;48.568;7.870;2023-02-01T05:20:30;5.73;;;3.70;;
7116;SDS011;3600;48.568;7.870;2023-02-01T05:22:57;4.37;;;3.97;;
7116;SDS011;3600;48.568;7.870;2023-02-01T05:25:24;4.47;;;3.87;;
7116;SDS011;3600;48.568;7.870;2023-02-01T05:27:50;6.57;;;4.33;;
7116;SDS011;3600;48.568;7.870;2023-02-01T05:30:17;5.37;;;4.20;;
7116;SDS011;3600;48.568;7.870;2023-02-01T05:32:44;5.33;;;4.00;;
7116;SDS011;3600;48.568;7.870;2023-02-01T05:35:10;4.37;;;4.07;;
7116;SDS011;3600;48.568;7.870;2023-02-01T05:37:37;5.20;;;4.30;;
7116;SDS011;3600;48.568;7.870;2023-02-01T05:40:04;5.90;;;4.07;;
7116;SDS011;3600;48.568;7.870;2023-02-01T05:42:31;4.53;;;4.03;;
7116;SDS011;3600;48.568;7.870;2023-02-01T05:44:58;6.67;;;5.33;;
7116;SDS011;3600;48.568;7.870;2023-02-01T05:47:24;5.97;;;4.20;;
7116;SDS011;3600;48.568;7.870;2023-02-01T05:49:52;7.80;;;5.50;;
7116;SDS011;3600;48.568;7.870;2023-02-01T05:52:18;10.63;;;6.60;;
7116;SDS011;3600;48.568;7.870;2023-02-01T05:54:46;11.23;;;9.20;;
7116;SDS011;3600;48.568;7.870;2023-02-01T05:57:13;9.87;;;7.63;;
7116;SDS011;3600;48.568;7.870;2023-02-01T05:59:40;9.47;;;6.77;;
7116;SDS011;3600;48.568;7.870;2023-02-01T06:02:07;6.10;;;5.50;;
7116;SDS011;3600;48.568;7.870;2023-02-01T06:04:36;4.47;;;4.07;;
7116;SDS011;3600;48.568;7.870;2023-02-01T06:07:03;4.47;;;4.07;;
7116;SDS011;3600;48.568;7.870;2023-02-01T06:09:31;3.90;;;3.30;;
7116;SDS011;3600;48.568;7.870;2023-02-01T06:11:58;4.00;;;3.57;;
7116;SDS011;3600;48.568;7.870;2023-02-01T06:14:25;4.03;;;3.70;;
7116;SDS011;3600;48.568;7.870;2023-02-01T06:16:52;3.93;;;3.63;;
7116;SDS011;3600;48.568;7.870;2023-02-01T06:19:19;5.30;;;4.37;;
7116;SDS011;3600;48.568;7.870;2023-02-01T06:21:46;4.80;;;4.20;;
7116;SDS011;3600;48.568;7.870;2023-02-01T06:24:13;4.20;;;3.87;;
7116;SDS011;3600;48.568;7.870;2023-02-01T06:26:40;4.43;;;3.97;;
7116;SDS011;3600;48.568;7.870;2023-02-01T06:29:09;4.70;;;3.87;;
7116;SDS011;3600;48.568;7.870;2023-02-01T06:31:36;4.23;;;3.67;;
7116;SDS011;3600;48.568;7.870;2023-02-01T06:34:03;4.20;;;3.80;;
7116;SDS011;3600;48.568;7.870;2023-02-01T06:36:30;4.20;;;3.80;;
7116;SDS011;3600;48.568;7.870;2023-02-01T06:38:57;4.50;;;3.77;;
7116;SDS011;3600;48.568;7.870;2023-02-01T06:41:25;4.47;;;4.00;;
7116;SDS011;3600;48.568;7.870;2023-02-01T06:43:54;4.07;;;3.63;;
7116;SDS011;3600;48.568;7.870;2023-02-01T06:46:21;4.17;;;3.77;;
7116;SDS011;3600;48.568;7.870;2023-02-01T06:48:48;5.53;;;4.50;;
7116;SDS011;3600;48.568;7.870;2023-02-01T06:51:24;4.63;;;3.40;;
7116;SDS011;3600;48.568;7.870;2023-02-01T06:53:52;4.80;;;3.80;;
7116;SDS011;3600;48.568;7.870;2023-02-01T06:56:19;4.77;;;3.83;;
7116;SDS011;3600;48.568;7.870;2023-02-01T06:58:47;9.27;;;4.10;;
7116;SDS011;3600;48.568;7.870;2023-02-01T07:01:15;4.23;;;3.50;;
7116;SDS011;3600;48.568;7.870;2023-02-01T07:03:42;4.07;;;3.63;;
7116;SDS011;3600;48.568;7.870;2023-02-01T07:06:12;3.90;;;3.37;;
7116;SDS011;3600;48.568;7.870;2023-02-01T07:08:39;3.80;;;3.50;;
7116;SDS011;3600;48.568;7.870;2023-02-01T07:11:06;4.50;;;3.57;;
7116;SDS011;3600;48.568;7.870;2023-02-01T07:13:35;4.87;;;3.93;;
7116;SDS011;3600;48.568;7.870;2023-02-01T07:16:03;3.50;;;3.20;;
7116;SDS011;3600;48.568;7.870;2023-02-01T07:18:32;4.60;;;3.53;;
7116;SDS011;3600;48.568;7.870;2023-02-01T07:20:59;5.37;;;3.90;;
7116;SDS011;3600;48.568;7.870;2023-02-01T07:23:26;3.73;;;3.13;;
7116;SDS011;3600;48.568;7.870;2023-02-01T07:25:57;4.33;;;3.03;;
7116;SDS011;3600;48.568;7.870;2023-02-01T07:28:30;3.50;;;3.20;;
7116;SDS011;3600;48.568;7.870;2023-02-01T07:31:06;4.17;;;3.13;;
7116;SDS011;3600;48.568;7.870;2023-02-01T07:33:34;3.97;;;2.63;;
7116;SDS011;3600;48.568;7.870;2023-02-01T07:36:02;3.17;;;2.73;;
7116;SDS011;3600;48.568;7.870;2023-02-01T07:38:31;3.23;;;2.93;;
7116;SDS011;3600;48.568;7.870;2023-02-01T07:40:58;2.73;;;2.53;;
7116;SDS011;3600;48.568;7.870;2023-02-01T07:43:27;3.63;;;3.03;;
7116;SDS011;3600;48.568;7.870;2023-02-01T07:45:54;3.10;;;2.80;;
7116;SDS011;3600;48.568;7.870;2023-02-01T07:48:22;2.80;;;2.60;;
7116;SDS011;3600;48.568;7.870;2023-02-01T07:51:00;3.13;;;2.83;;
7116;SDS011;3600;48.568;7.870;2023-02-01T07:53:38;3.20;;;2.67;;
7116;SDS011;3600;48.568;7.870;2023-02-01T07:56:09;3.10;;;2.80;;
7116;SDS011;3600;48.568;7.870;2023-02-01T07:58:41;3.77;;;3.00;;
7116;SDS011;3600;48.568;7.870;2023-02-01T08:01:18;3.47;;;3.13;;
7116;SDS011;3600;48.568;7.870;2023-02-01T08:03:47;3.37;;;2.83;;
7116;SDS011;3600;48.568;7.870;2023-02-01T08:06:15;3.03;;;2.80;;
7116;SDS011;3600;48.568;7.870;2023-02-01T08:08:42;4.40;;;2.80;;
7116;SDS011;3600;48.568;7.870;2023-02-01T08:11:11;3.17;;;2.87;;
7116;SDS011;3600;48.568;7.870;2023-02-01T08:13:39;3.73;;;2.87;;
7116;SDS011;3600;48.568;7.870;2023-02-01T08:16:06;2.70;;;2.50;;
7116;SDS011;3600;48.568;7.870;2023-02-01T08:18:34;3.00;;;2.70;;
7116;SDS011;3600;48.568;7.870;2023-02-01T08:21:04;3.57;;;3.27;;
7116;SDS011;3600;48.568;7.870;2023-02-01T08:23:36;3.03;;;2.73;;
7116;SDS011;3600;48.568;7.870;2023-02-01T08:28:42;2.40;;;2.20;;
7116;SDS011;3600;48.568;7.870;2023-02-01T08:31:11;2.53;;;2.33;;
7116;SDS011;3600;48.568;7.870;2023-02-01T08:33:41;3.30;;;2.73;;
7116;SDS011;3600;48.568;7.870;2023-02-01T08:36:10;4.63;;;2.90;;
7116;SDS011;3600;48.568;7.870;2023-02-01T08:38:37;3.40;;;2.77;;
7116;SDS011;3600;48.568;7.870;2023-02-01T08:41:06;3.77;;;2.70;;
7116;SDS011;3600;48.568;7.870;2023-02-01T08:43:34;2.40;;;2.20;;
7116;SDS011;3600;48.568;7.870;2023-02-01T08:46:02;2.83;;;2.60;;
7116;SDS011;3600;48.568;7.870;2023-02-01T08:48:30;5.63;;;2.53;;
7116;SDS011;3600;48.568;7.870;2023-02-01T08:50:57;4.33;;;2.43;;
7116;SDS011;3600;48.568;7.870;2023-02-01T08:53:23;3.13;;;2.83;;
7116;SDS011;3600;48.568;7.870;2023-02-01T08:55:50;3.20;;;2.53;;
7116;SDS011;3600;48.568;7.870;2023-02-01T08:58:17;3.67;;;2.70;;
7116;SDS011;3600;48.568;7.870;2023-02-01T09:00:44;5.80;;;2.57;;
7116;SDS011;3600;48.568;7.870;2023-02-01T09:03:11;3.67;;;2.57;;
7116;SDS011;3600;48.568;7.870;2023-02-01T09:05:38;2.50;;;2.30;;
7116;SDS011;3600;48.568;7.870;2023-02-01T09:08:15;4.43;;;2.90;;
7116;SDS011;3600;48.568;7.870;2023-02-01T09:10:41;3.73;;;2.33;;
7116;SDS011;3600;48.568;7.870;2023-02-01T09:13:08;6.17;;;2.93;;
7116;SDS011;3600;48.568;7.870;2023-02-01T09:15:36;4.47;;;2.83;;
7116;SDS011;3600;48.568;7.870;2023-02-01T09:18:03;2.87;;;2.30;;
7116;SDS011;3600;48.568;7.870;2023-02-01T09:20:30;6.23;;;2.63;;
7116;SDS011;3600;48.568;7.870;2023-02-01T09:22:57;2.60;;;2.27;;
7116;SDS011;3600;48.568;7.870;2023-02-01T09:25:24;2.80;;;2.57;;
7116;SDS011;3600;48.568;7.870;2023-02-01T09:27:50;3.00;;;2.70;;
7116;SDS011;3600;48.568;7.870;2023-02-01T09:30:17;5.47;;;2.70;;
7116;SDS011;3600;48.568;7.870;2023-02-01T09:32:44;4.43;;;2.60;;
7116;SDS011;3600;48.568;7.870;2023-02-01T09:35:11;5.33;;;3.53;;
7116;SDS011;3600;48.568;7.870;2023-02-01T09:37:38;5.23;;;3.50;;
7116;SDS011;3600;48.568;7.870;2023-02-01T09:40:05;6.60;;;3.40;;
7116;SDS011;3600;48.568;7.870;2023-02-01T09:45:44;5.30;;;3.57;;
7116;SDS011;3600;48.568;7.870;2023-02-01T09:48:15;4.60;;;3.40;;
7116;SDS011;3600;48.568;7.870;2023-02-01T09:50:50;3.83;;;3.30;;
7116;SDS011;3600;48.568;7.870;2023-02-01T09:53:35;3.87;;;3.33;;
7116;SDS011;3600;48.568;7.870;2023-02-01T09:56:07;3.13;;;2.70;;
7116;SDS011;3600;48.568;7.870;2023-02-01T09:58:40;3.83;;;3.27;;
7116;SDS011;3600;48.568;7.870;2023-02-01T10:01:21;3.23;;;2.60;;
7116;SDS011;3600;48.568;7.870;2023-02-01T10:03:51;3.30;;;3.00;;
7116;SDS011;3600;48.568;7.870;2023-02-01T10:06:28;4.30;;;2.83;;
7116;SDS011;3600;48.568;7.870;2023-02-01T10:09:07;6.60;;;3.23;;
7116;SDS011;3600;48.568;7.870;2023-02-01T10:15:02;2.90;;;2.70;;
7116;SDS011;3600;48.568;7.870;2023-02-01T10:20:12;3.57;;;3.17;;
7116;SDS011;3600;48.568;7.870;2023-02-01T10:25:56;4.13;;;3.33;;
7116;SDS011;3600;48.568;7.870;2023-02-01T10:28:32;6.03;;;3.20;;
7116;SDS011;3600;48.568;7.870;2023-02-01T10:31:02;3.30;;;3.00;;
7116;SDS011;3600;48.568;7.870;2023-02-01T10:33:41;3.13;;;2.80;;
7116;SDS011;3600;48.568;7.870;2023-02-01T10:36:19;2.97;;;2.67;;
7116;SDS011;3600;48.568;7.870;2023-02-01T10:38:52;3.50;;;3.20;;
7116;SDS011;3600;48.568;7.870;2023-02-01T10:41:21;3.87;;;2.90;;
7116;SDS011;3600;48.568;7.870;2023-02-01T10:43:53;3.47;;;3.17;;
7116;SDS011;3600;48.568;7.870;2023-02-01T10:46:23;5.80;;;3.23;;
7116;SDS011;3600;48.568;7.870;2023-02-01T10:48:50;4.70;;;3.17;;
7116;SDS011;3600;48.568;7.870;2023-02-01T10:51:27;5.23;;;3.03;;
7116;SDS011;3600;48.568;7.870;2023-02-01T10:54:18;3.10;;;2.53;;
7116;SDS011;3600;48.568;7.870;2023-02-01T10:56:57;4.97;;;2.53;;
7116;SDS011;3600;48.568;7.870;2023-02-01T10:59:27;3.60;;;2.93;;
7116;SDS011;3600;48.568;7.870;2023-02-01T11:02:00;6.63;;;3.00;;
7116;SDS011;3600;48.568;7.870;2023-02-01T11:04:33;4.60;;;2.70;;
7116;SDS011;3600;48.568;7.870;2023-02-01T11:07:06;5.40;;;2.40;;
7116;SDS011;3600;48.568;7.870;2023-02-01T11:09:52;4.37;;;2.87;;
7116;SDS011;3600;48.568;7.870;2023-02-01T11:12:30;4.17;;;2.40;;
7116;SDS011;3600;48.568;7.870;2023-02-01T11:15:13;8.10;;;2.90;;
7116;SDS011;3600;48.568;7.870;2023-02-01T11:17:49;6.93;;;3.03;;
7116;SDS011;3600;48.568;7.870;2023-02-01T11:22:58;8.87;;;2.80;;
7116;SDS011;3600;48.568;7.870;2023-02-01T11:25:25;8.20;;;3.00;;
7116;SDS011;3600;48.568;7.870;2023-02-01T11:27:53;6.80;;;3.37;;
7116;SDS011;3600;48.568;7.870;2023-02-01T11:30:32;7.70;;;2.80;;
7116;SDS011;3600;48.568;7.870;2023-02-01T11:33:03;5.07;;;2.97;;
7116;SDS011;3600;48.568;7.870;2023-02-01T11:35:32;4.53;;;2.90;;
7116;SDS011;3600;48.568;7.870;2023-02-01T11:41:18;4.20;;;3.40;;
7116;SDS011;3600;48.568;7.870;2023-02-01T11:43:50;2.83;;;2.57;;
7116;SDS011;3600;48.568;7.870;2023-02-01T11:46:23;6.07;;;2.90;;
7116;SDS011;3600;48.568;7.870;2023-02-01T11:48:54;3.43;;;2.77;;
7116;SDS011;3600;48.568;7.870;2023-02-01T11:54:21;4.13;;;3.10;;
7116;SDS011;3600;48.568;7.870;2023-02-01T11:57:12;6.20;;;3.07;;
7116;SDS011;3600;48.568;7.870;2023-02-01T12:00:05;7.17;;;3.80;;
7116;SDS011;3600;48.568;7.870;2023-02-01T12:03:05;5.93;;;3.37;;
7116;SDS011;3600;48.568;7.870;2023-02-01T12:05:52;4.83;;;3.10;;
7116;SDS011;3600;48.568;7.870;2023-02-01T12:14:38;6.33;;;3.10;;
7116;SDS011;3600;48.568;7.870;2023-02-01T12:19:47;6.60;;;3.80;;
7116;SDS011;3600;48.568;7.870;2023-02-01T12:31:09;4.13;;;3.77;;
7116;SDS011;3600;48.568;7.870;2023-02-01T12:33:48;5.27;;;3.47;;
7116;SDS011;3600;48.568;7.870;2023-02-01T12:36:25;6.40;;;3.70;;
7116;SDS011;3600;48.568;7.870;2023-02-01T12:42:07;6.17;;;3.33;;
7116;SDS011;3600;48.568;7.870;2023-02-01T12:47:35;7.27;;;3.63;;
7116;SDS011;3600;48.568;7.870;2023-02-01T12:50:22;5.13;;;3.23;;
7116;SDS011;3600;48.568;7.870;2023-02-01T12:52:55;6.23;;;3.10;;
7116;SDS011;3600;48.568;7.870;2023-02-01T12:55:35;7.60;;;2.90;;
7116;SDS011;3600;48.568;7.870;2023-02-01T12:58:13;6.93;;;2.83;;
7116;SDS011;3600;48.568;7.870;2023-02-01T13:01:06;6.93;;;2.77;;
7116;SDS011;3600;48.568;7.870;2023-02-01T13:03:59;9.33;;;3.03;;
7116;SDS011;3600;48.568;7.870;2023-02-01T13:06:39;9.30;;;2.77;;
7116;SDS011;3600;48.568;7.870;2023-02-01T13:12:00;9.50;;;3.07;;
7116;SDS011;3600;48.568;7.870;2023-02-01T13:17:14;7.47;;;2.80;;
7116;SDS011;3600;48.568;7.870;2023-02-01T13:19:57;4.10;;;2.70;;
7116;SDS011;3600;48.568;7.870;2023-02-01T13:22:32;5.73;;;2.87;;
7116;SDS011;3600;48.568;7.870;2023-02-01T13:27:36;6.97;;;2.40;;
7116;SDS011;3600;48.568;7.870;2023-02-01T13:36:15;6.13;;;3.40;;
7116;SDS011;3600;48.568;7.870;2023-02-01T13:39:02;7.83;;;2.90;;
7116;SDS011;3600;48.568;7.870;2023-02-01T13:44:25;6.37;;;3.00;;
7116;SDS011;3600;48.568;7.870;2023-02-01T13:46:59;5.43;;;3.10;;
7116;SDS011;3600;48.568;7.870;2023-02-01T13:49:30;8.70;;;3.13;;
7116;SDS011;3600;48.568;7.870;2023-02-01T13:52:03;5.67;;;2.27;;
7116;SDS011;3600;48.568;7.870;2023-02-01T13:54:31;8.83;;;3.10;;
7116;SDS011;3600;48.568;7.870;2023-02-01T13:57:05;9.07;;;2.83;;
7116;SDS011;3600;48.568;7.870;2023-02-01T14:05:09;7.87;;;3.10;;
7116;SDS011;3600;48.568;7.870;2023-02-01T14:07:40;7.37;;;3.17;;
7116;SDS011;3600;48.568;7.870;2023-02-01T14:10:46;9.10;;;3.57;;
7116;SDS011;3600;48.568;7.870;2023-02-01T14:13:55;7.13;;;2.83;;
7116;SDS011;3600;48.568;7.870;2023-02-01T14:16:15;8.50;;;3.00;;
7116;SDS011;3600;48.568;7.870;2023-02-01T14:34:37;7.70;;;2.73;;
7116;SDS011;3600;48.568;7.870;2023-02-01T14:44:51;8.47;;;3.27;;
7116;SDS011;3600;48.568;7.870;2023-02-01T14:52:30;11.07;;;3.50;;
7116;SDS011;3600;48.568;7.870;2023-02-01T14:55:02;11.70;;;5.40;;
7116;SDS011;3600;48.568;7.870;2023-02-01T14:57:33;5.07;;;3.30;;
7116;SDS011;3600;48.568;7.870;2023-02-01T15:00:27;9.00;;;2.73;;
7116;SDS011;3600;48.568;7.870;2023-02-01T15:02:55;7.50;;;2.83;;
7116;SDS011;3600;48.568;7.870;2023-02-01T15:05:42;10.17;;;5.13;;
7116;SDS011;3600;48.568;7.870;2023-02-01T15:08:15;13.90;;;6.50;;
7116;SDS011;3600;48.568;7.870;2023-02-01T15:10:45;15.03;;;4.67;;
7116;SDS011;3600;48.568;7.870;2023-02-01T15:13:27;10.07;;;3.50;;
7116;SDS011;3600;48.568;7.870;2023-02-01T15:18:27;10.40;;;3.53;;
7116;SDS011;3600;48.568;7.870;2023-02-01T15:20:58;7.53;;;3.20;;
7116;SDS011;3600;48.568;7.870;2023-02-01T15:23:46;8.37;;;3.57;;
7116;SDS011;3600;48.568;7.870;2023-02-01T15:26:24;10.50;;;3.20;;
7116;SDS011;3600;48.568;7.870;2023-02-01T15:28:52;7.67;;;4.23;;
7116;SDS011;3600;48.568;7.870;2023-02-01T15:31:32;5.83;;;3.20;;
7116;SDS011;3600;48.568;7.870;2023-02-01T15:34:04;8.10;;;2.90;;
7116;SDS011;3600;48.568;7.870;2023-02-01T15:36:31;6.57;;;3.00;;
7116;SDS011;3600;48.568;7.870;2023-02-01T15:44:20;6.40;;;2.90;;
7116;SDS011;3600;48.568;7.870;2023-02-01T15:46:56;5.83;;;2.40;;
7116;SDS011;3600;48.568;7.870;2023-02-01T15:49:25;5.83;;;2.50;;
7116;SDS011;3600;48.568;7.870;2023-02-01T15:51:58;5.70;;;2.63;;
7116;SDS011;3600;48.568;7.870;2023-02-01T15:57:27;5.53;;;2.50;;
7116;SDS011;3600;48.568;7.870;2023-02-01T15:59:58;9.70;;;3.23;;
7116;SDS011;3600;48.568;7.870;2023-02-01T16:02:33;9.37;;;2.93;;
7116;SDS011;3600;48.568;7.870;2023-02-01T16:05:40;6.40;;;2.90;;
7116;SDS011;3600;48.568;7.870;2023-02-01T16:08:14;6.83;;;2.70;;
7116;SDS011;3600;48.568;7.870;2023-02-01T16:10:50;6.33;;;3.27;;
7116;SDS011;3600;48.568;7.870;2023-02-01T16:13:18;7.30;;;3.23;;
7116;SDS011;3600;48.568;7.870;2023-02-01T16:15:46;4.60;;;2.93;;
7116;SDS011;3600;48.568;7.870;2023-02-01T16:18:14;7.00;;;2.23;;
7116;SDS011;3600;48.568;7.870;2023-02-01T16:20:44;7.13;;;2.70;;
7116;SDS011;3600;48.568;7.870;2023-02-01T16:23:13;9.73;;;3.30;;
7116;SDS011;3600;48.568;7.870;2023-02-01T16:25:40;11.13;;;3.57;;
7116;SDS011;3600;48.568;7.870;2023-02-01T16:28:07;8.63;;;3.10;;
7116;SDS011;3600;48.568;7.870;2023-02-01T16:30:34;7.73;;;2.90;;
7116;SDS011;3600;48.568;7.870;2023-02-01T16:33:01;6.27;;;2.53;;
7116;SDS011;3600;48.568;7.870;2023-02-01T16:35:35;8.20;;;2.30;;
7116;SDS011;3600;48.568;7.870;2023-02-01T16:38:14;5.33;;;2.87;;
7116;SDS011;3600;48.568;7.870;2023-02-01T16:40:44;10.07;;;3.03;;
7116;SDS011;3600;48.568;7.870;2023-02-01T16:43:19;7.67;;;3.13;;
7116;SDS011;3600;48.568;7.870;2023-02-01T16:45:48;10.17;;;3.57;;
7116;SDS011;3600;48.568;7.870;2023-02-01T16:50:54;7.73;;;3.77;;
7116;SDS011;3600;48.568;7.870;2023-02-01T16:53:22;6.70;;;3.73;;
7116;SDS011;3600;48.568;7.870;2023-02-01T16:55:50;5.83;;;2.47;;
7116;SDS011;3600;48.568;7.870;2023-02-01T16:58:18;8.80;;;3.13;;
7116;SDS011;3600;48.568;7.870;2023-02-01T17:00:46;5.43;;;2.60;;
7116;SDS011;3600;48.568;7.870;2023-02-01T17:03:14;6.73;;;2.93;;
7116;SDS011;3600;48.568;7.870;2023-02-01T17:05:47;7.73;;;2.83;;
7116;SDS011;3600;48.568;7.870;2023-02-01T17:08:17;7.80;;;2.80;;
7116;SDS011;3600;48.568;7.870;2023-02-01T17:10:45;9.07;;;3.13;;
7116;SDS011;3600;48.568;7.870;2023-02-01T17:13:13;5.33;;;2.80;;
7116;SDS011;3600;48.568;7.870;2023-02-01T17:15:58;5.87;;;2.47;;
7116;SDS011;3600;48.568;7.870;2023-02-01T17:18:32;6.87;;;2.80;;
7116;SDS011;3600;48.568;7.870;2023-02-01T17:21:08;8.13;;;3.03;;
7116;SDS011;3600;48.568;7.870;2023-02-01T17:23:37;9.07;;;3.13;;
7116;SDS011;3600;48.568;7.870;2023-02-01T17:26:07;12.13;;;2.93;;
7116;SDS011;3600;48.568;7.870;2023-02-01T17:28:35;5.43;;;2.80;;
7116;SDS011;3600;48.568;7.870;2023-02-01T17:31:02;8.47;;;2.53;;
7116;SDS011;3600;48.568;7.870;2023-02-01T17:33:33;8.73;;;2.50;;
7116;SDS011;3600;48.568;7.870;2023-02-01T17:36:03;8.20;;;2.90;;
7116;SDS011;3600;48.568;7.870;2023-02-01T17:38:32;5.37;;;2.40;;
7116;SDS011;3600;48.568;7.870;2023-02-01T17:41:00;8.23;;;2.70;;
7116;SDS011;3600;48.568;7.870;2023-02-01T17:43:27;4.67;;;2.53;;
7116;SDS011;3600;48.568;7.870;2023-02-01T17:45:54;5.47;;;2.43;;
7116;SDS011;3600;48.568;7.870;2023-02-01T17:48:38;7.10;;;3.20;;
7116;SDS011;3600;48.568;7.870;2023-02-01T17:51:05;6.83;;;3.40;;
7116;SDS011;3600;48.568;7.870;2023-02-01T17:53:45;9.17;;;3.43;;
7116;SDS011;3600;48.568;7.870;2023-02-01T17:56:13;7.97;;;3.57;;
7116;SDS011;3600;48.568;7.870;2023-02-01T17:58:41;9.23;;;2.80;;
7116;SDS011;3600;48.568;7.870;2023-02-01T18:01:14;6.53;;;2.67;;